Flight Track Log - Related Links

Times and Time Zones

All times are in EDT time to prevent confusion due to time zone crossing. See the SKW5516 flight status page for this flight to view local times or setup timezone preferences in your user account.

Time Position Orientation Groundspeed Altitude Reporting Facility
EDT Latitude Longitude Course Direction KTS MPH feet Rate Location/Type
Tue 01:26:00 PM 39.8027 -105.1073 260° West  Level Estimated
Tue 01:27:00 PM 39.7827 -105.2519 260° West  Level Estimated
Tue 01:28:00 PM 39.7626 -105.3963 260° West  Level Estimated
Tue 01:29:00 PM 39.7422 -105.5407 260° West  Level Estimated
Tue 01:30:00 PM 39.7217 -105.6850 260° West  Level Estimated
Tue 01:31:00 PM 39.7010 -105.8292 259° West  Level Estimated
Tue 01:32:00 PM 39.6801 -105.9733 259° West  Level Estimated
Tue 01:33:00 PM 39.6590 -106.1173 259° West  Level Estimated
Tue 01:34:00 PM 39.6378 -106.2613 259° West  Level Estimated
Tue 01:35:00 PM 39.6163 -106.4051 259° West  Level Estimated
Tue 01:36:00 PM 39.5947 -106.5489 259° West  Level Estimated
Tue 01:37:00 PM 39.5730 -106.6926 259° West  Level Estimated
Tue 01:38:00 PM 39.5510 -106.8362 259° West  Level Estimated
Tue 01:39:00 PM 39.5289 -106.9796 259° West  Level Estimated
Tue 01:40:00 PM 39.5066 -107.1230 259° West  Level Estimated
Tue 01:41:00 PM 39.4841 -107.2663 259° West  Level Estimated
Tue 01:42:00 PM 39.4614 -107.4096 258° West  Level Estimated
Tue 01:43:00 PM 39.4386 -107.5527 258° West  Level Estimated
Tue 01:44:00 PM 39.4156 -107.6957 258° West  Level Estimated
Tue 01:45:00 PM 39.3924 -107.8387 258° West  Level Estimated
Tue 01:46:00 PM 39.3690 -107.9815 258° West  Level Estimated
Tue 01:47:00 PM 39.3455 -108.1242 258° West  Level Estimated
Tue 01:48:00 PM 39.3218 -108.2669 258° West  Level Estimated
Tue 01:49:00 PM 39.2979 -108.4094 258° West  Level Estimated
Tue 01:50:00 PM 39.2738 -108.5519 258° West  Level Estimated
Tue 01:51:00 PM 39.2496 -108.6942 258° West  Level Estimated
Tue 01:52:00 PM 39.2252 -108.8365 258° West  Level Estimated
Tue 01:53:00 PM 39.2006 -108.9786 257° West  Level Estimated
Tue 01:54:00 PM 39.1759 -109.1207 257° West  Level Estimated
Tue 01:55:00 PM 39.1510 -109.2626 257° West  Level Estimated
Tue 01:56:00 PM 39.1259 -109.4045 257° West  Level Estimated
Tue 01:57:00 PM 39.1006 -109.5462 257° West  Level Estimated
Tue 01:58:00 PM 39.0751 -109.6879 257° West  Level Estimated
Tue 01:59:00 PM 39.0495 -109.8294 257° West  Level Estimated
Tue 02:00:00 PM 39.0238 -109.9709 257° West  Level Estimated
Tue 02:01:00 PM 38.9978 -110.1122 257° West  Level Estimated
Tue 02:02:00 PM 38.9717 -110.2534 257° West  Level Estimated
Tue 02:03:00 PM 38.9454 -110.3946 257° West  Level Estimated
Tue 02:04:00 PM 38.9189 -110.5356 256° West  Level Estimated
Tue 02:05:00 PM 38.8923 -110.6765 256° West  Level Estimated
Tue 02:06:00 PM 38.8655 -110.8174 256° West  Level Estimated
Tue 02:07:00 PM 38.8385 -110.9581 256° West  Level Estimated
Tue 02:08:00 PM 38.8114 -111.0987 256° West  Level Estimated
Tue 02:09:00 PM 38.7841 -111.2392 256° West  Level Estimated
Tue 02:10:00 PM 38.7566 -111.3795 256° West  Level Estimated
Tue 02:11:00 PM 38.7290 -111.5198 256° West  Level Estimated
Tue 02:12:00 PM 38.7012 -111.6600 256° West  Level Estimated
Tue 02:13:00 PM 38.6732 -111.8001 256° West  Level Estimated
Tue 02:14:00 PM 38.6451 -111.9400 256° West  Level Estimated
Tue 02:15:00 PM 38.6167 -112.0798 256° West  Level Estimated
Tue 02:16:00 PM 38.5883 -112.2196 255° West  Level Estimated
Tue 02:17:00 PM 38.5596 -112.3592 255° West  Level Estimated
Tue 02:18:00 PM 38.5308 -112.4987 255° West  Level Estimated
Tue 02:19:00 PM 38.5018 -112.6381 255° West  Level Estimated
Tue 02:20:00 PM 38.4727 -112.7774 255° West  Level Estimated
Tue 02:21:00 PM 38.4434 -112.9166 255° West  Level Estimated
Tue 02:22:00 PM 38.4139 -113.0556 255° West  Level Estimated
Tue 02:23:00 PM 38.3843 -113.1946 255° West  Level Estimated
Tue 02:24:00 PM 38.3545 -113.3334 255° West  Level Estimated
Tue 02:25:00 PM 38.3246 -113.4721 255° West  Level Estimated
Tue 02:26:00 PM 38.2944 -113.6107 255° West  Level Estimated
Tue 02:27:00 PM 38.2641 -113.7492 254° West  Level Estimated
Tue 02:28:00 PM 38.2337 -113.8876 254° West  Level Estimated
Tue 02:29:00 PM 38.2031 -114.0258 254° West  Level Estimated
Tue 02:30:00 PM 38.1723 -114.1639 254° West  Level Estimated
Tue 02:31:00 PM 38.1414 -114.3020 254° West  Level Estimated
Tue 02:32:00 PM 38.1103 -114.4399 254° West  Level Estimated
Tue 02:33:00 PM 38.0790 -114.5777 254° West  Level Estimated
Tue 02:34:00 PM 38.0476 -114.7153 254° West  Level Estimated
Tue 02:35:00 PM 38.0160 -114.8529 254° West  Level Estimated
Tue 02:36:00 PM 37.9843 -114.9903 254° West  Level Estimated
Tue 02:37:00 PM 37.9524 -115.1276 254° West  Level Estimated
Tue 02:38:00 PM 37.9203 -115.2648 254° West  Level Estimated
Tue 02:39:00 PM 37.8881 -115.4019 253° West  Level Estimated
Tue 02:40:00 PM 37.8558 -115.5388 253° West  Level Estimated
Tue 02:41:00 PM 37.8232 -115.6757 253° West  Level Estimated
Tue 02:42:00 PM 37.7905 -115.8124 253° West  Level Estimated
Tue 02:43:00 PM 37.7577 -115.9490 253° West  Level Estimated
Tue 02:44:00 PM 37.7247 -116.0854 253° West  Level Estimated
Tue 02:45:00 PM 37.6915 -116.2218 253° West  Level Estimated
Tue 02:46:00 PM 37.6582 -116.3580 253° West  Level Estimated
Tue 02:47:00 PM 37.6247 -116.4941 253° West  Level Estimated
Tue 02:48:00 PM 37.5911 -116.6301 253° West  Level Estimated
Tue 02:49:00 PM 37.5573 -116.7659 253° West  Level Estimated
Tue 02:50:00 PM 37.5234 -116.9016 253° West  Level Estimated
Tue 02:51:00 PM 37.4893 -117.0372 252° West  Level Estimated
Tue 02:52:00 PM 37.4550 -117.1727 252° West  Level Estimated
Tue 02:53:00 PM 37.4206 -117.3081 252° West  Level Estimated
Tue 02:54:00 PM 37.3860 -117.4433 252° West  Level Estimated
Tue 02:55:00 PM 37.3513 -117.5784 252° West  Level Estimated
Tue 02:56:00 PM 37.3164 -117.7134 252° West  Level Estimated
Tue 02:57:00 PM 37.2814 -117.8483 252° West  Level Estimated
Tue 02:58:00 PM 37.2463 -117.9830 252° West  Level Estimated
Tue 02:59:00 PM 37.2109 -118.1176 252° West  Level Estimated
Tue 03:00:00 PM 37.1754 -118.2521 252° West  Level Estimated
Tue 03:01:00 PM 37.1398 -118.3864 252° West  Level Estimated
Tue 03:02:00 PM 37.1040 -118.5207 252° West  Level Estimated
Tue 03:03:00 PM 37.0681 -118.6548 251° West  Level Estimated
Tue 03:04:00 PM 37.0320 -118.7887 251° West  Level Estimated
Tue 03:05:00 PM 36.9958 -118.9226 251° West  Level Estimated
Tue 03:06:00 PM 36.9594 -119.0563 251° West  Level Estimated
Tue 03:07:00 PM 36.9228 -119.1899 251° West  Level Estimated
Tue 03:08:00 PM 36.8862 -119.3234 251° West  Level Estimated
Tue 03:09:00 PM 36.8493 -119.4567 251° West  Level Estimated
Tue 03:10:00 PM 36.8123 -119.5899 251° West  Level Estimated
Tue 03:11:00 PM 36.7764 -119.7187 251° West  Level Estimated
Tue 03:12:00 PM 36.7764 -119.7187 148° Southeast  Level Estimated
Tue 03:13:00 PM 36.7764 -119.7187 148° Southeast  Level Estimated
Tue 03:14:00 PM 36.7764 -119.7187 148° Southeast  Level Estimated
Tue 03:15:00 PM 36.7764 -119.7187 148° Southeast  Level Estimated
Tue 03:16:00 PM 36.7764 -119.7187 148° Southeast  Level Estimated
Tue 03:17:00 PM 36.7764 -119.7187 148° Southeast  Level Estimated
Tue 03:18:00 PM 36.7764 -119.7187 148° Southeast  Level Estimated
Tue 03:19:00 PM 36.7764 -119.7187 148° Southeast  Level Estimated

Login

Don't have an account? Register now (free) for customized features, flight alerts, and more!